sensor_id;sensor_type;location;lat;lon;timestamp;P1;durP1;ratioP1;P2;durP2;ratioP2
31206;SDS011;17834;52.992;8.856;2024-01-10T00:01:33;16.15;;;8.02;;
31206;SDS011;17834;52.992;8.856;2024-01-10T00:03:59;16.77;;;7.75;;
31206;SDS011;17834;52.992;8.856;2024-01-10T00:06:24;10.98;;;6.65;;
31206;SDS011;17834;52.992;8.856;2024-01-10T00:08:50;10.27;;;6.88;;
31206;SDS011;17834;52.992;8.856;2024-01-10T00:11:15;19.55;;;7.35;;
31206;SDS011;17834;52.992;8.856;2024-01-10T00:13:41;17.27;;;7.60;;
31206;SDS011;17834;52.992;8.856;2024-01-10T00:16:07;16.83;;;7.13;;
31206;SDS011;17834;52.992;8.856;2024-01-10T00:18:33;13.85;;;7.22;;
31206;SDS011;17834;52.992;8.856;2024-01-10T00:20:59;16.42;;;6.90;;
31206;SDS011;17834;52.992;8.856;2024-01-10T00:23:24;15.75;;;7.13;;
31206;SDS011;17834;52.992;8.856;2024-01-10T00:25:50;17.70;;;8.00;;
31206;SDS011;17834;52.992;8.856;2024-01-10T00:28:15;14.77;;;7.00;;
31206;SDS011;17834;52.992;8.856;2024-01-10T00:30:44;16.08;;;7.78;;
31206;SDS011;17834;52.992;8.856;2024-01-10T00:33:12;20.33;;;8.82;;
31206;SDS011;17834;52.992;8.856;2024-01-10T00:35:38;16.85;;;8.23;;
31206;SDS011;17834;52.992;8.856;2024-01-10T00:38:03;17.83;;;8.00;;
31206;SDS011;17834;52.992;8.856;2024-01-10T00:40:29;14.27;;;6.40;;
31206;SDS011;17834;52.992;8.856;2024-01-10T00:42:54;22.73;;;9.00;;
31206;SDS011;17834;52.992;8.856;2024-01-10T00:45:20;18.45;;;8.38;;
31206;SDS011;17834;52.992;8.856;2024-01-10T00:47:45;22.02;;;8.23;;
31206;SDS011;17834;52.992;8.856;2024-01-10T00:50:13;22.92;;;9.60;;
31206;SDS011;17834;52.992;8.856;2024-01-10T00:52:38;13.32;;;7.95;;
31206;SDS011;17834;52.992;8.856;2024-01-10T00:55:04;17.75;;;8.57;;
31206;SDS011;17834;52.992;8.856;2024-01-10T00:57:30;12.57;;;6.20;;
31206;SDS011;17834;52.992;8.856;2024-01-10T00:59:55;16.52;;;8.25;;
31206;SDS011;17834;52.992;8.856;2024-01-10T01:02:21;14.05;;;7.75;;
31206;SDS011;17834;52.992;8.856;2024-01-10T01:04:46;14.13;;;7.80;;
31206;SDS011;17834;52.992;8.856;2024-01-10T01:07:12;17.55;;;8.23;;
31206;SDS011;17834;52.992;8.856;2024-01-10T01:09:37;15.48;;;8.73;;
31206;SDS011;17834;52.992;8.856;2024-01-10T01:12:03;14.07;;;7.43;;
31206;SDS011;17834;52.992;8.856;2024-01-10T01:14:29;19.10;;;8.68;;
31206;SDS011;17834;52.992;8.856;2024-01-10T01:16:54;13.52;;;8.35;;
31206;SDS011;17834;52.992;8.856;2024-01-10T01:19:20;17.23;;;8.07;;
31206;SDS011;17834;52.992;8.856;2024-01-10T01:21:45;12.52;;;7.38;;
31206;SDS011;17834;52.992;8.856;2024-01-10T01:24:11;18.27;;;8.52;;
31206;SDS011;17834;52.992;8.856;2024-01-10T01:26:36;17.00;;;8.02;;
31206;SDS011;17834;52.992;8.856;2024-01-10T01:29:02;15.57;;;8.15;;
31206;SDS011;17834;52.992;8.856;2024-01-10T01:31:27;20.08;;;8.73;;
31206;SDS011;17834;52.992;8.856;2024-01-10T01:33:53;17.23;;;8.80;;
31206;SDS011;17834;52.992;8.856;2024-01-10T01:36:18;19.63;;;8.13;;
31206;SDS011;17834;52.992;8.856;2024-01-10T01:38:44;14.27;;;6.60;;
31206;SDS011;17834;52.992;8.856;2024-01-10T01:41:09;17.45;;;7.60;;
31206;SDS011;17834;52.992;8.856;2024-01-10T01:43:35;16.67;;;8.27;;
31206;SDS011;17834;52.992;8.856;2024-01-10T01:46:01;18.00;;;7.00;;
31206;SDS011;17834;52.992;8.856;2024-01-10T01:48:28;16.75;;;7.20;;
31206;SDS011;17834;52.992;8.856;2024-01-10T01:50:56;17.52;;;7.47;;
31206;SDS011;17834;52.992;8.856;2024-01-10T01:53:25;14.45;;;7.97;;
31206;SDS011;17834;52.992;8.856;2024-01-10T01:55:51;12.30;;;6.95;;
31206;SDS011;17834;52.992;8.856;2024-01-10T01:58:17;17.67;;;7.75;;
31206;SDS011;17834;52.992;8.856;2024-01-10T02:00:43;15.10;;;6.85;;
31206;SDS011;17834;52.992;8.856;2024-01-10T02:03:09;13.05;;;6.90;;
31206;SDS011;17834;52.992;8.856;2024-01-10T02:05:36;15.80;;;8.98;;
31206;SDS011;17834;52.992;8.856;2024-01-10T02:08:02;21.42;;;9.32;;
31206;SDS011;17834;52.992;8.856;2024-01-10T02:10:28;15.80;;;6.90;;
31206;SDS011;17834;52.992;8.856;2024-01-10T02:12:53;16.38;;;7.50;;
31206;SDS011;17834;52.992;8.856;2024-01-10T02:15:19;11.10;;;6.60;;
31206;SDS011;17834;52.992;8.856;2024-01-10T02:17:45;16.10;;;7.63;;
31206;SDS011;17834;52.992;8.856;2024-01-10T02:20:11;19.95;;;8.00;;
31206;SDS011;17834;52.992;8.856;2024-01-10T02:22:38;16.33;;;6.68;;
31206;SDS011;17834;52.992;8.856;2024-01-10T02:25:07;17.65;;;9.02;;
31206;SDS011;17834;52.992;8.856;2024-01-10T02:27:35;20.17;;;8.55;;
31206;SDS011;17834;52.992;8.856;2024-01-10T02:30:02;12.00;;;6.35;;
31206;SDS011;17834;52.992;8.856;2024-01-10T02:32:28;16.13;;;7.40;;
31206;SDS011;17834;52.992;8.856;2024-01-10T02:34:53;13.85;;;7.72;;
31206;SDS011;17834;52.992;8.856;2024-01-10T02:37:19;12.77;;;7.15;;
31206;SDS011;17834;52.992;8.856;2024-01-10T02:39:44;15.88;;;6.55;;
31206;SDS011;17834;52.992;8.856;2024-01-10T02:42:10;14.00;;;8.02;;
31206;SDS011;17834;52.992;8.856;2024-01-10T02:44:35;15.48;;;7.55;;
31206;SDS011;17834;52.992;8.856;2024-01-10T02:47:01;14.00;;;7.97;;
31206;SDS011;17834;52.992;8.856;2024-01-10T02:49:26;19.67;;;8.48;;
31206;SDS011;17834;52.992;8.856;2024-01-10T02:51:52;15.88;;;7.88;;
31206;SDS011;17834;52.992;8.856;2024-01-10T02:54:17;16.10;;;6.97;;
31206;SDS011;17834;52.992;8.856;2024-01-10T02:56:43;15.98;;;8.10;;
31206;SDS011;17834;52.992;8.856;2024-01-10T02:59:08;17.48;;;7.68;;
31206;SDS011;17834;52.992;8.856;2024-01-10T03:01:34;14.15;;;7.60;;
31206;SDS011;17834;52.992;8.856;2024-01-10T03:03:59;16.92;;;8.10;;
31206;SDS011;17834;52.992;8.856;2024-01-10T03:06:25;17.35;;;6.70;;
31206;SDS011;17834;52.992;8.856;2024-01-10T03:08:50;12.98;;;8.68;;
31206;SDS011;17834;52.992;8.856;2024-01-10T03:11:16;14.90;;;6.57;;
31206;SDS011;17834;52.992;8.856;2024-01-10T03:13:43;16.75;;;8.43;;
31206;SDS011;17834;52.992;8.856;2024-01-10T03:16:10;12.70;;;7.45;;
31206;SDS011;17834;52.992;8.856;2024-01-10T03:18:36;15.68;;;7.82;;
31206;SDS011;17834;52.992;8.856;2024-01-10T03:21:01;17.02;;;7.65;;
31206;SDS011;17834;52.992;8.856;2024-01-10T03:23:27;15.02;;;8.45;;
31206;SDS011;17834;52.992;8.856;2024-01-10T03:25:53;13.20;;;7.85;;
31206;SDS011;17834;52.992;8.856;2024-01-10T03:28:18;16.75;;;7.85;;
31206;SDS011;17834;52.992;8.856;2024-01-10T03:30:44;18.08;;;8.23;;
31206;SDS011;17834;52.992;8.856;2024-01-10T03:33:10;17.05;;;8.80;;
31206;SDS011;17834;52.992;8.856;2024-01-10T03:35:35;22.75;;;8.45;;
31206;SDS011;17834;52.992;8.856;2024-01-10T03:38:01;16.75;;;8.15;;
31206;SDS011;17834;52.992;8.856;2024-01-10T03:40:26;14.27;;;7.75;;
31206;SDS011;17834;52.992;8.856;2024-01-10T03:42:52;16.13;;;8.35;;
31206;SDS011;17834;52.992;8.856;2024-01-10T03:45:18;16.23;;;7.93;;
31206;SDS011;17834;52.992;8.856;2024-01-10T03:47:46;14.63;;;8.40;;
31206;SDS011;17834;52.992;8.856;2024-01-10T03:50:15;18.77;;;8.63;;
31206;SDS011;17834;52.992;8.856;2024-01-10T03:52:42;16.35;;;8.93;;
31206;SDS011;17834;52.992;8.856;2024-01-10T03:55:08;18.13;;;7.18;;
31206;SDS011;17834;52.992;8.856;2024-01-10T03:57:34;16.85;;;8.27;;
31206;SDS011;17834;52.992;8.856;2024-01-10T03:59:59;13.30;;;8.75;;
31206;SDS011;17834;52.992;8.856;2024-01-10T04:02:25;17.15;;;9.85;;
31206;SDS011;17834;52.992;8.856;2024-01-10T04:04:52;18.23;;;9.55;;
31206;SDS011;17834;52.992;8.856;2024-01-10T04:07:18;17.67;;;7.50;;
31206;SDS011;17834;52.992;8.856;2024-01-10T04:09:44;18.23;;;9.57;;
31206;SDS011;17834;52.992;8.856;2024-01-10T04:12:09;15.95;;;9.05;;
31206;SDS011;17834;52.992;8.856;2024-01-10T04:14:35;16.25;;;8.73;;
31206;SDS011;17834;52.992;8.856;2024-01-10T04:17:00;14.50;;;9.00;;
31206;SDS011;17834;52.992;8.856;2024-01-10T04:19:26;16.48;;;8.15;;
31206;SDS011;17834;52.992;8.856;2024-01-10T04:21:52;14.88;;;7.35;;
31206;SDS011;17834;52.992;8.856;2024-01-10T04:24:17;13.43;;;8.82;;
31206;SDS011;17834;52.992;8.856;2024-01-10T04:26:43;18.40;;;9.07;;
31206;SDS011;17834;52.992;8.856;2024-01-10T04:29:09;13.30;;;8.27;;
31206;SDS011;17834;52.992;8.856;2024-01-10T04:31:34;24.15;;;10.38;;
31206;SDS011;17834;52.992;8.856;2024-01-10T04:34:00;13.20;;;8.07;;
31206;SDS011;17834;52.992;8.856;2024-01-10T04:36:26;18.15;;;8.30;;
31206;SDS011;17834;52.992;8.856;2024-01-10T04:38:52;17.95;;;9.85;;
31206;SDS011;17834;52.992;8.856;2024-01-10T04:41:18;19.55;;;10.10;;
31206;SDS011;17834;52.992;8.856;2024-01-10T04:43:44;21.90;;;9.93;;
31206;SDS011;17834;52.992;8.856;2024-01-10T04:46:09;21.02;;;10.30;;
31206;SDS011;17834;52.992;8.856;2024-01-10T04:48:35;23.90;;;11.18;;
31206;SDS011;17834;52.992;8.856;2024-01-10T04:51:01;24.42;;;11.43;;
31206;SDS011;17834;52.992;8.856;2024-01-10T04:53:27;26.80;;;11.93;;
31206;SDS011;17834;52.992;8.856;2024-01-10T04:55:52;19.58;;;11.15;;
31206;SDS011;17834;52.992;8.856;2024-01-10T04:58:18;17.50;;;9.68;;
31206;SDS011;17834;52.992;8.856;2024-01-10T05:00:43;22.50;;;11.55;;
31206;SDS011;17834;52.992;8.856;2024-01-10T05:03:09;17.02;;;10.07;;
31206;SDS011;17834;52.992;8.856;2024-01-10T05:05:34;23.77;;;11.10;;
31206;SDS011;17834;52.992;8.856;2024-01-10T05:08:00;19.63;;;10.38;;
31206;SDS011;17834;52.992;8.856;2024-01-10T05:10:26;20.13;;;10.57;;
31206;SDS011;17834;52.992;8.856;2024-01-10T05:12:52;35.83;;;11.38;;
31206;SDS011;17834;52.992;8.856;2024-01-10T05:15:18;21.08;;;9.60;;
31206;SDS011;17834;52.992;8.856;2024-01-10T05:17:44;22.67;;;10.38;;
31206;SDS011;17834;52.992;8.856;2024-01-10T05:20:09;22.42;;;10.85;;
31206;SDS011;17834;52.992;8.856;2024-01-10T05:22:35;19.38;;;10.73;;
31206;SDS011;17834;52.992;8.856;2024-01-10T05:25:01;22.42;;;10.05;;
31206;SDS011;17834;52.992;8.856;2024-01-10T05:27:27;22.90;;;10.43;;
31206;SDS011;17834;52.992;8.856;2024-01-10T05:29:52;23.20;;;10.77;;
31206;SDS011;17834;52.992;8.856;2024-01-10T05:32:18;16.48;;;9.70;;
31206;SDS011;17834;52.992;8.856;2024-01-10T05:34:44;19.25;;;10.35;;
31206;SDS011;17834;52.992;8.856;2024-01-10T05:37:10;18.80;;;10.10;;
31206;SDS011;17834;52.992;8.856;2024-01-10T05:39:35;19.95;;;11.10;;
31206;SDS011;17834;52.992;8.856;2024-01-10T05:42:01;17.98;;;9.10;;
31206;SDS011;17834;52.992;8.856;2024-01-10T05:44:27;22.38;;;8.93;;
31206;SDS011;17834;52.992;8.856;2024-01-10T05:46:53;18.15;;;8.73;;
31206;SDS011;17834;52.992;8.856;2024-01-10T05:49:18;17.63;;;8.85;;
31206;SDS011;17834;52.992;8.856;2024-01-10T05:51:44;28.70;;;10.82;;
31206;SDS011;17834;52.992;8.856;2024-01-10T05:54:09;17.42;;;8.70;;
31206;SDS011;17834;52.992;8.856;2024-01-10T05:56:35;21.88;;;9.07;;
31206;SDS011;17834;52.992;8.856;2024-01-10T05:59:01;17.10;;;9.25;;
31206;SDS011;17834;52.992;8.856;2024-01-10T06:01:26;20.52;;;9.85;;
31206;SDS011;17834;52.992;8.856;2024-01-10T06:03:52;21.17;;;9.77;;
31206;SDS011;17834;52.992;8.856;2024-01-10T06:06:17;27.70;;;10.18;;
31206;SDS011;17834;52.992;8.856;2024-01-10T06:08:43;25.30;;;10.55;;
31206;SDS011;17834;52.992;8.856;2024-01-10T06:11:08;23.02;;;10.35;;
31206;SDS011;17834;52.992;8.856;2024-01-10T06:13:37;15.88;;;8.73;;
31206;SDS011;17834;52.992;8.856;2024-01-10T06:16:03;16.85;;;8.95;;
31206;SDS011;17834;52.992;8.856;2024-01-10T06:18:29;21.45;;;8.38;;
31206;SDS011;17834;52.992;8.856;2024-01-10T06:20:54;21.52;;;9.77;;
31206;SDS011;17834;52.992;8.856;2024-01-10T06:23:20;19.50;;;10.82;;
31206;SDS011;17834;52.992;8.856;2024-01-10T06:25:45;19.95;;;9.52;;
31206;SDS011;17834;52.992;8.856;2024-01-10T06:28:11;17.67;;;10.27;;
31206;SDS011;17834;52.992;8.856;2024-01-10T06:30:36;24.58;;;9.55;;
31206;SDS011;17834;52.992;8.856;2024-01-10T06:33:02;18.38;;;9.40;;
31206;SDS011;17834;52.992;8.856;2024-01-10T06:35:27;17.92;;;9.00;;
31206;SDS011;17834;52.992;8.856;2024-01-10T06:37:53;23.85;;;10.05;;
31206;SDS011;17834;52.992;8.856;2024-01-10T06:40:18;23.63;;;8.77;;
31206;SDS011;17834;52.992;8.856;2024-01-10T06:42:46;17.08;;;9.68;;
31206;SDS011;17834;52.992;8.856;2024-01-10T06:45:12;17.40;;;8.57;;
31206;SDS011;17834;52.992;8.856;2024-01-10T06:47:38;21.58;;;9.63;;
31206;SDS011;17834;52.992;8.856;2024-01-10T06:50:04;18.15;;;8.45;;
31206;SDS011;17834;52.992;8.856;2024-01-10T06:52:31;15.82;;;8.13;;
31206;SDS011;17834;52.992;8.856;2024-01-10T06:54:57;23.63;;;8.60;;
31206;SDS011;17834;52.992;8.856;2024-01-10T06:57:23;15.13;;;8.98;;
31206;SDS011;17834;52.992;8.856;2024-01-10T06:59:49;16.52;;;8.98;;
31206;SDS011;17834;52.992;8.856;2024-01-10T07:02:15;17.27;;;6.93;;
31206;SDS011;17834;52.992;8.856;2024-01-10T07:04:42;18.23;;;8.38;;
31206;SDS011;17834;52.992;8.856;2024-01-10T07:07:08;15.45;;;8.38;;
31206;SDS011;17834;52.992;8.856;2024-01-10T07:09:34;17.85;;;7.63;;
31206;SDS011;17834;52.992;8.856;2024-01-10T07:12:00;17.17;;;7.78;;
31206;SDS011;17834;52.992;8.856;2024-01-10T07:14:27;20.92;;;6.78;;
31206;SDS011;17834;52.992;8.856;2024-01-10T07:16:53;16.40;;;7.53;;
31206;SDS011;17834;52.992;8.856;2024-01-10T07:19:21;17.60;;;6.97;;
31206;SDS011;17834;52.992;8.856;2024-01-10T07:21:48;20.67;;;8.05;;
31206;SDS011;17834;52.992;8.856;2024-01-10T07:24:15;19.30;;;7.65;;
31206;SDS011;17834;52.992;8.856;2024-01-10T07:26:41;14.40;;;7.90;;
31206;SDS011;17834;52.992;8.856;2024-01-10T07:29:07;16.08;;;8.27;;
31206;SDS011;17834;52.992;8.856;2024-01-10T07:31:33;17.35;;;7.90;;
31206;SDS011;17834;52.992;8.856;2024-01-10T07:33:59;20.85;;;9.15;;
31206;SDS011;17834;52.992;8.856;2024-01-10T07:36:25;14.55;;;7.25;;
31206;SDS011;17834;52.992;8.856;2024-01-10T07:38:51;17.27;;;7.40;;
31206;SDS011;17834;52.992;8.856;2024-01-10T07:41:19;17.05;;;7.55;;
31206;SDS011;17834;52.992;8.856;2024-01-10T07:43:45;18.77;;;8.27;;
31206;SDS011;17834;52.992;8.856;2024-01-10T07:46:11;15.77;;;7.65;;
31206;SDS011;17834;52.992;8.856;2024-01-10T07:48:37;20.80;;;8.75;;
31206;SDS011;17834;52.992;8.856;2024-01-10T07:51:03;13.07;;;7.20;;
31206;SDS011;17834;52.992;8.856;2024-01-10T07:53:30;20.92;;;7.57;;
31206;SDS011;17834;52.992;8.856;2024-01-10T07:55:56;16.50;;;7.60;;
31206;SDS011;17834;52.992;8.856;2024-01-10T07:58:22;14.65;;;7.00;;
31206;SDS011;17834;52.992;8.856;2024-01-10T08:00:48;18.35;;;8.05;;
31206;SDS011;17834;52.992;8.856;2024-01-10T08:03:14;31.60;;;8.88;;
31206;SDS011;17834;52.992;8.856;2024-01-10T08:05:40;13.07;;;7.80;;
31206;SDS011;17834;52.992;8.856;2024-01-10T08:08:06;17.60;;;7.13;;
31206;SDS011;17834;52.992;8.856;2024-01-10T08:10:32;17.00;;;7.93;;
31206;SDS011;17834;52.992;8.856;2024-01-10T08:12:58;22.60;;;7.88;;
31206;SDS011;17834;52.992;8.856;2024-01-10T08:15:24;14.80;;;8.25;;
31206;SDS011;17834;52.992;8.856;2024-01-10T08:17:50;22.17;;;7.78;;
31206;SDS011;17834;52.992;8.856;2024-01-10T08:20:17;20.95;;;9.35;;
31206;SDS011;17834;52.992;8.856;2024-01-10T08:22:47;15.85;;;8.20;;
31206;SDS011;17834;52.992;8.856;2024-01-10T08:25:13;12.40;;;7.55;;
31206;SDS011;17834;52.992;8.856;2024-01-10T08:27:40;19.67;;;7.45;;
31206;SDS011;17834;52.992;8.856;2024-01-10T08:30:06;20.08;;;7.95;;
31206;SDS011;17834;52.992;8.856;2024-01-10T08:32:34;14.07;;;7.07;;
31206;SDS011;17834;52.992;8.856;2024-01-10T08:35:01;17.17;;;7.80;;
31206;SDS011;17834;52.992;8.856;2024-01-10T08:37:29;22.58;;;8.40;;
31206;SDS011;17834;52.992;8.856;2024-01-10T08:39:55;16.55;;;7.75;;
31206;SDS011;17834;52.992;8.856;2024-01-10T08:42:21;13.15;;;7.78;;
31206;SDS011;17834;52.992;8.856;2024-01-10T08:44:47;13.40;;;6.93;;
31206;SDS011;17834;52.992;8.856;2024-01-10T08:47:14;18.95;;;8.57;;
31206;SDS011;17834;52.992;8.856;2024-01-10T08:49:40;16.05;;;8.10;;
31206;SDS011;17834;52.992;8.856;2024-01-10T08:52:06;12.02;;;7.40;;
31206;SDS011;17834;52.992;8.856;2024-01-10T08:54:33;12.82;;;6.55;;
31206;SDS011;17834;52.992;8.856;2024-01-10T08:56:59;14.93;;;7.00;;
31206;SDS011;17834;52.992;8.856;2024-01-10T08:59:25;15.32;;;7.60;;
31206;SDS011;17834;52.992;8.856;2024-01-10T09:01:52;18.00;;;7.72;;
31206;SDS011;17834;52.992;8.856;2024-01-10T09:04:18;18.30;;;7.53;;
31206;SDS011;17834;52.992;8.856;2024-01-10T09:06:45;19.02;;;8.23;;
31206;SDS011;17834;52.992;8.856;2024-01-10T09:09:11;16.80;;;7.10;;
31206;SDS011;17834;52.992;8.856;2024-01-10T09:11:38;16.95;;;7.72;;
31206;SDS011;17834;52.992;8.856;2024-01-10T09:14:04;17.27;;;7.95;;
31206;SDS011;17834;52.992;8.856;2024-01-10T09:16:30;15.27;;;7.20;;
31206;SDS011;17834;52.992;8.856;2024-01-10T09:18:56;18.05;;;7.57;;
31206;SDS011;17834;52.992;8.856;2024-01-10T09:21:22;16.58;;;7.78;;
31206;SDS011;17834;52.992;8.856;2024-01-10T09:23:48;15.63;;;7.85;;
31206;SDS011;17834;52.992;8.856;2024-01-10T09:26:16;19.02;;;8.02;;
31206;SDS011;17834;52.992;8.856;2024-01-10T09:28:43;19.35;;;9.05;;
31206;SDS011;17834;52.992;8.856;2024-01-10T09:31:09;15.13;;;7.20;;
31206;SDS011;17834;52.992;8.856;2024-01-10T09:33:35;17.85;;;8.27;;
31206;SDS011;17834;52.992;8.856;2024-01-10T09:36:01;19.42;;;6.80;;
31206;SDS011;17834;52.992;8.856;2024-01-10T09:38:28;15.95;;;7.32;;
31206;SDS011;17834;52.992;8.856;2024-01-10T09:40:59;16.08;;;6.95;;
31206;SDS011;17834;52.992;8.856;2024-01-10T09:43:29;13.38;;;6.63;;
31206;SDS011;17834;52.992;8.856;2024-01-10T09:45:55;12.35;;;6.18;;
31206;SDS011;17834;52.992;8.856;2024-01-10T09:48:23;19.13;;;6.70;;
31206;SDS011;17834;52.992;8.856;2024-01-10T09:50:49;19.75;;;7.13;;
31206;SDS011;17834;52.992;8.856;2024-01-10T09:53:20;16.80;;;7.82;;
31206;SDS011;17834;52.992;8.856;2024-01-10T09:55:48;13.15;;;6.78;;
31206;SDS011;17834;52.992;8.856;2024-01-10T09:58:15;13.82;;;6.82;;
31206;SDS011;17834;52.992;8.856;2024-01-10T10:00:41;18.15;;;7.57;;
31206;SDS011;17834;52.992;8.856;2024-01-10T10:03:07;21.40;;;7.50;;
31206;SDS011;17834;52.992;8.856;2024-01-10T10:05:37;10.55;;;5.82;;
31206;SDS011;17834;52.992;8.856;2024-01-10T10:08:06;14.30;;;6.88;;
31206;SDS011;17834;52.992;8.856;2024-01-10T10:10:32;22.05;;;7.88;;
31206;SDS011;17834;52.992;8.856;2024-01-10T10:12:59;13.32;;;6.10;;
31206;SDS011;17834;52.992;8.856;2024-01-10T10:15:24;14.38;;;7.30;;
31206;SDS011;17834;52.992;8.856;2024-01-10T10:17:54;11.45;;;6.07;;
31206;SDS011;17834;52.992;8.856;2024-01-10T10:20:24;15.82;;;6.40;;
31206;SDS011;17834;52.992;8.856;2024-01-10T10:23:06;11.57;;;5.72;;
31206;SDS011;17834;52.992;8.856;2024-01-10T10:25:36;16.17;;;8.98;;
31206;SDS011;17834;52.992;8.856;2024-01-10T10:28:03;13.60;;;6.13;;
31206;SDS011;17834;52.992;8.856;2024-01-10T10:30:30;13.68;;;6.75;;
31206;SDS011;17834;52.992;8.856;2024-01-10T10:32:56;15.13;;;6.03;;
31206;SDS011;17834;52.992;8.856;2024-01-10T10:35:22;15.48;;;7.20;;
31206;SDS011;17834;52.992;8.856;2024-01-10T10:37:51;12.48;;;5.97;;
31206;SDS011;17834;52.992;8.856;2024-01-10T10:40:17;16.52;;;7.35;;
31206;SDS011;17834;52.992;8.856;2024-01-10T10:42:44;17.88;;;7.15;;
31206;SDS011;17834;52.992;8.856;2024-01-10T10:45:12;17.40;;;7.28;;
31206;SDS011;17834;52.992;8.856;2024-01-10T10:47:41;17.67;;;6.20;;
31206;SDS011;17834;52.992;8.856;2024-01-10T10:50:08;14.07;;;6.72;;
31206;SDS011;17834;52.992;8.856;2024-01-10T10:52:35;13.80;;;6.97;;
31206;SDS011;17834;52.992;8.856;2024-01-10T10:55:01;12.85;;;6.82;;
31206;SDS011;17834;52.992;8.856;2024-01-10T10:57:28;13.15;;;6.10;;
31206;SDS011;17834;52.992;8.856;2024-01-10T10:59:54;12.23;;;6.28;;
31206;SDS011;17834;52.992;8.856;2024-01-10T11:02:21;14.55;;;6.22;;
31206;SDS011;17834;52.992;8.856;2024-01-10T11:04:48;25.02;;;6.93;;
31206;SDS011;17834;52.992;8.856;2024-01-10T11:07:15;14.98;;;6.15;;
31206;SDS011;17834;52.992;8.856;2024-01-10T11:09:41;18.85;;;6.75;;
31206;SDS011;17834;52.992;8.856;2024-01-10T11:12:15;18.42;;;6.80;;
31206;SDS011;17834;52.992;8.856;2024-01-10T11:15:02;18.05;;;6.25;;
31206;SDS011;17834;52.992;8.856;2024-01-10T11:17:43;17.90;;;7.23;;
31206;SDS011;17834;52.992;8.856;2024-01-10T11:20:23;11.82;;;6.30;;
31206;SDS011;17834;52.992;8.856;2024-01-10T11:25:41;12.82;;;6.60;;
31206;SDS011;17834;52.992;8.856;2024-01-10T11:28:08;16.33;;;6.47;;
31206;SDS011;17834;52.992;8.856;2024-01-10T11:30:34;14.57;;;7.00;;
31206;SDS011;17834;52.992;8.856;2024-01-10T11:33:17;15.57;;;6.72;;
31206;SDS011;17834;52.992;8.856;2024-01-10T11:36:05;13.63;;;6.30;;
31206;SDS011;17834;52.992;8.856;2024-01-10T11:38:30;18.48;;;8.00;;
31206;SDS011;17834;52.992;8.856;2024-01-10T11:40:56;16.25;;;6.72;;
31206;SDS011;17834;52.992;8.856;2024-01-10T11:43:22;16.95;;;6.85;;
31206;SDS011;17834;52.992;8.856;2024-01-10T11:45:51;16.77;;;6.70;;
31206;SDS011;17834;52.992;8.856;2024-01-10T11:48:27;17.42;;;6.82;;
31206;SDS011;17834;52.992;8.856;2024-01-10T11:50:54;15.40;;;7.57;;
31206;SDS011;17834;52.992;8.856;2024-01-10T11:56:09;18.70;;;6.63;;
31206;SDS011;17834;52.992;8.856;2024-01-10T11:58:53;12.98;;;5.93;;
31206;SDS011;17834;52.992;8.856;2024-01-10T12:01:19;16.17;;;7.07;;
31206;SDS011;17834;52.992;8.856;2024-01-10T12:03:46;12.60;;;5.85;;
31206;SDS011;17834;52.992;8.856;2024-01-10T12:06:14;13.20;;;6.88;;
31206;SDS011;17834;52.992;8.856;2024-01-10T12:08:40;11.80;;;5.65;;
31206;SDS011;17834;52.992;8.856;2024-01-10T12:11:06;21.13;;;6.32;;
31206;SDS011;17834;52.992;8.856;2024-01-10T12:13:33;10.73;;;5.22;;
31206;SDS011;17834;52.992;8.856;2024-01-10T12:15:59;22.48;;;7.10;;
31206;SDS011;17834;52.992;8.856;2024-01-10T12:18:25;17.88;;;6.65;;
31206;SDS011;17834;52.992;8.856;2024-01-10T12:20:51;17.70;;;7.85;;
31206;SDS011;17834;52.992;8.856;2024-01-10T12:23:17;16.25;;;7.38;;
31206;SDS011;17834;52.992;8.856;2024-01-10T12:25:43;15.15;;;5.78;;
31206;SDS011;17834;52.992;8.856;2024-01-10T12:28:09;15.43;;;6.38;;
31206;SDS011;17834;52.992;8.856;2024-01-10T12:30:35;15.55;;;6.20;;
31206;SDS011;17834;52.992;8.856;2024-01-10T12:33:01;17.70;;;7.10;;
31206;SDS011;17834;52.992;8.856;2024-01-10T12:35:27;17.83;;;6.25;;
31206;SDS011;17834;52.992;8.856;2024-01-10T12:37:54;13.18;;;5.53;;
31206;SDS011;17834;52.992;8.856;2024-01-10T12:40:20;13.73;;;5.93;;
31206;SDS011;17834;52.992;8.856;2024-01-10T12:42:46;12.55;;;5.05;;
31206;SDS011;17834;52.992;8.856;2024-01-10T12:45:22;15.95;;;5.97;;
31206;SDS011;17834;52.992;8.856;2024-01-10T12:47:48;17.95;;;6.65;;
31206;SDS011;17834;52.992;8.856;2024-01-10T12:50:14;13.57;;;5.10;;
31206;SDS011;17834;52.992;8.856;2024-01-10T12:52:40;10.48;;;5.28;;
31206;SDS011;17834;52.992;8.856;2024-01-10T12:55:08;10.75;;;5.03;;
31206;SDS011;17834;52.992;8.856;2024-01-10T12:57:34;13.68;;;5.85;;
31206;SDS011;17834;52.992;8.856;2024-01-10T13:00:00;13.25;;;5.07;;
31206;SDS011;17834;52.992;8.856;2024-01-10T13:02:31;13.75;;;5.88;;
31206;SDS011;17834;52.992;8.856;2024-01-10T13:05:00;12.00;;;5.57;;
31206;SDS011;17834;52.992;8.856;2024-01-10T13:07:26;9.20;;;5.15;;
31206;SDS011;17834;52.992;8.856;2024-01-10T13:09:55;12.18;;;4.30;;
31206;SDS011;17834;52.992;8.856;2024-01-10T13:12:21;9.65;;;5.28;;
31206;SDS011;17834;52.992;8.856;2024-01-10T13:14:47;10.80;;;5.45;;
31206;SDS011;17834;52.992;8.856;2024-01-10T13:17:13;15.90;;;5.32;;
31206;SDS011;17834;52.992;8.856;2024-01-10T13:19:39;12.35;;;4.85;;
31206;SDS011;17834;52.992;8.856;2024-01-10T13:22:05;10.90;;;5.03;;
31206;SDS011;17834;52.992;8.856;2024-01-10T13:24:31;9.52;;;4.57;;
31206;SDS011;17834;52.992;8.856;2024-01-10T13:26:58;14.10;;;5.20;;
31206;SDS011;17834;52.992;8.856;2024-01-10T13:29:24;13.98;;;4.97;;
31206;SDS011;17834;52.992;8.856;2024-01-10T13:31:50;7.57;;;4.13;;
31206;SDS011;17834;52.992;8.856;2024-01-10T13:34:16;10.82;;;5.07;;
31206;SDS011;17834;52.992;8.856;2024-01-10T13:36:42;16.15;;;5.18;;
31206;SDS011;17834;52.992;8.856;2024-01-10T13:39:08;9.80;;;4.80;;
31206;SDS011;17834;52.992;8.856;2024-01-10T13:41:38;12.88;;;5.05;;
31206;SDS011;17834;52.992;8.856;2024-01-10T13:44:04;13.98;;;5.82;;
31206;SDS011;17834;52.992;8.856;2024-01-10T13:46:30;16.23;;;5.20;;
31206;SDS011;17834;52.992;8.856;2024-01-10T13:48:56;12.00;;;5.20;;
31206;SDS011;17834;52.992;8.856;2024-01-10T13:51:22;12.27;;;5.15;;
31206;SDS011;17834;52.992;8.856;2024-01-10T13:53:48;11.55;;;5.25;;
31206;SDS011;17834;52.992;8.856;2024-01-10T13:56:14;13.60;;;4.95;;
31206;SDS011;17834;52.992;8.856;2024-01-10T13:58:40;9.32;;;4.57;;
31206;SDS011;17834;52.992;8.856;2024-01-10T14:01:06;13.30;;;5.45;;
31206;SDS011;17834;52.992;8.856;2024-01-10T14:03:32;9.45;;;4.57;;
31206;SDS011;17834;52.992;8.856;2024-01-10T14:05:58;23.85;;;6.85;;
31206;SDS011;17834;52.992;8.856;2024-01-10T14:08:24;12.40;;;5.43;;
31206;SDS011;17834;52.992;8.856;2024-01-10T14:10:50;10.23;;;4.70;;
31206;SDS011;17834;52.992;8.856;2024-01-10T14:13:16;10.10;;;4.47;;
31206;SDS011;17834;52.992;8.856;2024-01-10T14:15:42;10.50;;;5.28;;
31206;SDS011;17834;52.992;8.856;2024-01-10T14:18:08;9.05;;;4.07;;
31206;SDS011;17834;52.992;8.856;2024-01-10T14:20:34;11.23;;;4.43;;
31206;SDS011;17834;52.992;8.856;2024-01-10T14:23:00;11.23;;;5.28;;
31206;SDS011;17834;52.992;8.856;2024-01-10T14:25:26;14.70;;;5.97;;
31206;SDS011;17834;52.992;8.856;2024-01-10T14:27:53;11.73;;;5.68;;
31206;SDS011;17834;52.992;8.856;2024-01-10T14:30:19;15.85;;;6.68;;
31206;SDS011;17834;52.992;8.856;2024-01-10T14:32:46;12.07;;;5.53;;
31206;SDS011;17834;52.992;8.856;2024-01-10T14:35:12;11.80;;;5.20;;